sensor_id;sensor_type;location;lat;lon;timestamp;temperature;humidity
22426;DHT22;11380;50.822;15.790;2023-04-01T00:00:20;8.60;1.00
22426;DHT22;11380;50.822;15.790;2023-04-01T00:05:30;8.60;1.00
22426;DHT22;11380;50.822;15.790;2023-04-01T00:10:38;8.50;1.00
22426;DHT22;11380;50.822;15.790;2023-04-01T00:15:45;8.50;1.00
22426;DHT22;11380;50.822;15.790;2023-04-01T00:20:54;8.50;1.00
22426;DHT22;11380;50.822;15.790;2023-04-01T00:26:02;8.60;1.00
22426;DHT22;11380;50.822;15.790;2023-04-01T00:31:11;8.70;1.00
22426;DHT22;11380;50.822;15.790;2023-04-01T00:36:21;8.50;1.00
22426;DHT22;11380;50.822;15.790;2023-04-01T00:41:29;8.50;1.00
22426;DHT22;11380;50.822;15.790;2023-04-01T00:46:36;8.60;1.00
22426;DHT22;11380;50.822;15.790;2023-04-01T00:51:44;8.60;1.00
22426;DHT22;11380;50.822;15.790;2023-04-01T00:57:05;8.40;1.00
22426;DHT22;11380;50.822;15.790;2023-04-01T01:02:15;8.30;1.00
22426;DHT22;11380;50.822;15.790;2023-04-01T01:13:31;8.20;1.00
22426;DHT22;11380;50.822;15.790;2023-04-01T01:19:00;8.20;1.00
22426;DHT22;11380;50.822;15.790;2023-04-01T01:29:59;8.00;1.00
22426;DHT22;11380;50.822;15.790;2023-04-01T01:35:35;8.00;1.00
22426;DHT22;11380;50.822;15.790;2023-04-01T01:40:49;8.10;1.00
22426;DHT22;11380;50.822;15.790;2023-04-01T01:46:05;8.20;1.00
22426;DHT22;11380;50.822;15.790;2023-04-01T01:51:13;8.10;1.00
22426;DHT22;11380;50.822;15.790;2023-04-01T01:56:22;8.20;1.00
22426;DHT22;11380;50.822;15.790;2023-04-01T02:01:35;8.10;1.00
22426;DHT22;11380;50.822;15.790;2023-04-01T02:06:50;8.10;1.00
22426;DHT22;11380;50.822;15.790;2023-04-01T02:12:08;8.00;1.00
22426;DHT22;11380;50.822;15.790;2023-04-01T02:17:21;7.90;10.90
22426;DHT22;11380;50.822;15.790;2023-04-01T02:22:36;7.80;56.40
22426;DHT22;11380;50.822;15.790;2023-04-01T02:27:46;7.90;99.90
22426;DHT22;11380;50.822;15.790;2023-04-01T02:32:53;7.90;99.90
22426;DHT22;11380;50.822;15.790;2023-04-01T02:38:02;7.90;99.90
22426;DHT22;11380;50.822;15.790;2023-04-01T02:43:10;7.80;99.90
22426;DHT22;11380;50.822;15.790;2023-04-01T02:48:18;7.80;99.90
22426;DHT22;11380;50.822;15.790;2023-04-01T02:53:26;7.90;99.90
22426;DHT22;11380;50.822;15.790;2023-04-01T02:58:33;7.70;99.90
22426;DHT22;11380;50.822;15.790;2023-04-01T03:03:40;7.70;99.90
22426;DHT22;11380;50.822;15.790;2023-04-01T03:08:50;7.80;99.90
22426;DHT22;11380;50.822;15.790;2023-04-01T03:13:58;7.90;99.90
22426;DHT22;11380;50.822;15.790;2023-04-01T03:19:05;7.80;99.90
22426;DHT22;11380;50.822;15.790;2023-04-01T03:24:13;7.70;99.90
22426;DHT22;11380;50.822;15.790;2023-04-01T03:29:25;7.80;99.90
22426;DHT22;11380;50.822;15.790;2023-04-01T03:34:33;7.70;99.90
22426;DHT22;11380;50.822;15.790;2023-04-01T03:39:40;7.70;99.90
22426;DHT22;11380;50.822;15.790;2023-04-01T03:44:48;7.70;99.90
22426;DHT22;11380;50.822;15.790;2023-04-01T03:49:57;7.90;99.90
22426;DHT22;11380;50.822;15.790;2023-04-01T03:55:03;7.70;99.90
22426;DHT22;11380;50.822;15.790;2023-04-01T04:00:11;7.60;99.90
22426;DHT22;11380;50.822;15.790;2023-04-01T04:05:19;7.70;99.90
22426;DHT22;11380;50.822;15.790;2023-04-01T04:10:26;7.70;99.90
22426;DHT22;11380;50.822;15.790;2023-04-01T04:15:34;7.60;99.90
22426;DHT22;11380;50.822;15.790;2023-04-01T04:20:46;7.70;99.90
22426;DHT22;11380;50.822;15.790;2023-04-01T04:25:59;7.80;99.90
22426;DHT22;11380;50.822;15.790;2023-04-01T04:31:07;7.90;99.90
22426;DHT22;11380;50.822;15.790;2023-04-01T04:36:14;7.80;99.90
22426;DHT22;11380;50.822;15.790;2023-04-01T04:41:22;7.90;99.90
22426;DHT22;11380;50.822;15.790;2023-04-01T04:46:31;7.90;99.90
22426;DHT22;11380;50.822;15.790;2023-04-01T04:51:37;7.90;99.90
22426;DHT22;11380;50.822;15.790;2023-04-01T04:56:46;7.90;99.90
22426;DHT22;11380;50.822;15.790;2023-04-01T05:01:54;7.90;99.90
22426;DHT22;11380;50.822;15.790;2023-04-01T05:07:02;8.00;99.90
22426;DHT22;11380;50.822;15.790;2023-04-01T05:12:08;8.00;99.90
22426;DHT22;11380;50.822;15.790;2023-04-01T05:17:16;7.90;99.90
22426;DHT22;11380;50.822;15.790;2023-04-01T05:22:23;7.90;99.90
22426;DHT22;11380;50.822;15.790;2023-04-01T05:27:31;8.00;99.90
22426;DHT22;11380;50.822;15.790;2023-04-01T05:32:39;8.00;99.90
22426;DHT22;11380;50.822;15.790;2023-04-01T05:37:48;8.00;99.90
22426;DHT22;11380;50.822;15.790;2023-04-01T05:42:56;8.00;99.90
22426;DHT22;11380;50.822;15.790;2023-04-01T05:48:05;8.10;99.90
22426;DHT22;11380;50.822;15.790;2023-04-01T05:53:12;8.10;99.90
22426;DHT22;11380;50.822;15.790;2023-04-01T05:58:19;8.10;98.60
22426;DHT22;11380;50.822;15.790;2023-04-01T06:03:27;8.20;96.70
22426;DHT22;11380;50.822;15.790;2023-04-01T06:08:34;8.20;25.70
22426;DHT22;11380;50.822;15.790;2023-04-01T06:30:30;8.30;1.00
22426;DHT22;11380;50.822;15.790;2023-04-01T06:36:00;8.40;1.00
22426;DHT22;11380;50.822;15.790;2023-04-01T06:47:17;8.50;1.00
22426;DHT22;11380;50.822;15.790;2023-04-01T06:52:47;8.50;1.00
22426;DHT22;11380;50.822;15.790;2023-04-01T06:58:21;8.60;1.00
22426;DHT22;11380;50.822;15.790;2023-04-01T07:03:38;8.60;1.00
22426;DHT22;11380;50.822;15.790;2023-04-01T07:08:49;8.60;1.00
22426;DHT22;11380;50.822;15.790;2023-04-01T07:14:06;8.60;1.00
22426;DHT22;11380;50.822;15.790;2023-04-01T07:19:39;8.70;1.00
22426;DHT22;11380;50.822;15.790;2023-04-01T07:24:55;8.70;1.00
22426;DHT22;11380;50.822;15.790;2023-04-01T07:30:19;8.70;1.00
22426;DHT22;11380;50.822;15.790;2023-04-01T07:41:12;8.60;1.00
22426;DHT22;11380;50.822;15.790;2023-04-01T07:46:50;8.70;1.00
22426;DHT22;11380;50.822;15.790;2023-04-01T07:52:19;8.80;1.00
22426;DHT22;11380;50.822;15.790;2023-04-01T08:03:13;9.10;1.00
22426;DHT22;11380;50.822;15.790;2023-04-01T08:24:44;9.50;1.00
22426;DHT22;11380;50.822;15.790;2023-04-01T08:30:06;9.70;1.00
22426;DHT22;11380;50.822;15.790;2023-04-01T08:46:17;10.10;1.00
22426;DHT22;11380;50.822;15.790;2023-04-01T08:52:02;10.00;1.00
22426;DHT22;11380;50.822;15.790;2023-04-01T08:57:45;9.80;1.00
22426;DHT22;11380;50.822;15.790;2023-04-01T09:25:51;10.20;1.00
22426;DHT22;11380;50.822;15.790;2023-04-01T09:37:00;10.70;1.00
22426;DHT22;11380;50.822;15.790;2023-04-01T09:47:43;10.20;1.00
22426;DHT22;11380;50.822;15.790;2023-04-01T09:53:04;10.20;1.00
22426;DHT22;11380;50.822;15.790;2023-04-01T10:22:00;10.90;1.00
22426;DHT22;11380;50.822;15.790;2023-04-01T10:27:21;10.90;1.00
22426;DHT22;11380;50.822;15.790;2023-04-01T10:33:08;10.70;1.00
22426;DHT22;11380;50.822;15.790;2023-04-01T10:38:34;10.60;1.00
22426;DHT22;11380;50.822;15.790;2023-04-01T11:00:18;11.50;1.00
22426;DHT22;11380;50.822;15.790;2023-04-01T11:22:36;11.40;1.00
22426;DHT22;11380;50.822;15.790;2023-04-01T11:33:35;11.50;1.00
22426;DHT22;11380;50.822;15.790;2023-04-01T11:39:11;12.40;1.00
22426;DHT22;11380;50.822;15.790;2023-04-01T11:44:33;12.70;1.00
22426;DHT22;11380;50.822;15.790;2023-04-01T12:12:28;12.20;1.00
22426;DHT22;11380;50.822;15.790;2023-04-01T12:18:00;12.10;1.00
22426;DHT22;11380;50.822;15.790;2023-04-01T12:23:51;11.50;1.00
22426;DHT22;11380;50.822;15.790;2023-04-01T12:39:59;11.30;1.00
22426;DHT22;11380;50.822;15.790;2023-04-01T12:45:35;11.80;1.00
22426;DHT22;11380;50.822;15.790;2023-04-01T12:51:08;11.60;1.00
22426;DHT22;11380;50.822;15.790;2023-04-01T13:01:57;13.00;1.00
22426;DHT22;11380;50.822;15.790;2023-04-01T13:24:19;13.90;1.00
22426;DHT22;11380;50.822;15.790;2023-04-01T13:29:31;14.20;1.00
22426;DHT22;11380;50.822;15.790;2023-04-01T13:57:29;12.50;1.00
22426;DHT22;11380;50.822;15.790;2023-04-01T14:02:50;12.20;1.00
22426;DHT22;11380;50.822;15.790;2023-04-01T14:30:38;11.80;1.00
22426;DHT22;11380;50.822;15.790;2023-04-01T14:41:59;12.00;1.00
22426;DHT22;11380;50.822;15.790;2023-04-01T14:47:18;12.20;1.00
22426;DHT22;11380;50.822;15.790;2023-04-01T14:52:31;12.00;1.00
22426;DHT22;11380;50.822;15.790;2023-04-01T14:57:39;12.20;1.00
22426;DHT22;11380;50.822;15.790;2023-04-01T15:03:08;12.50;99.90
22426;DHT22;11380;50.822;15.790;2023-04-01T15:08:29;12.80;99.90
22426;DHT22;11380;50.822;15.790;2023-04-01T15:13:45;13.00;99.90
22426;DHT22;11380;50.822;15.790;2023-04-01T15:19:55;12.70;99.90
22426;DHT22;11380;50.822;15.790;2023-04-01T15:24:24;12.40;99.90
22426;DHT22;11380;50.822;15.790;2023-04-01T15:30:00;12.40;99.90
22426;DHT22;11380;50.822;15.790;2023-04-01T15:40:53;12.20;99.90
22426;DHT22;11380;50.822;15.790;2023-04-01T15:57:14;11.30;99.90
22426;DHT22;11380;50.822;15.790;2023-04-01T16:02:33;11.20;99.90
22426;DHT22;11380;50.822;15.790;2023-04-01T16:14:14;11.20;99.90
22426;DHT22;11380;50.822;15.790;2023-04-01T16:24:43;11.40;99.90
22426;DHT22;11380;50.822;15.790;2023-04-01T16:30:03;11.10;99.90
22426;DHT22;11380;50.822;15.790;2023-04-01T16:35:30;11.10;99.90
22426;DHT22;11380;50.822;15.790;2023-04-01T16:40:52;11.30;99.90
22426;DHT22;11380;50.822;15.790;2023-04-01T16:46:20;11.30;99.90
22426;DHT22;11380;50.822;15.790;2023-04-01T16:57:25;10.90;99.90
22426;DHT22;11380;50.822;15.790;2023-04-01T17:02:49;10.40;99.90
22426;DHT22;11380;50.822;15.790;2023-04-01T17:13:33;9.90;99.90
22426;DHT22;11380;50.822;15.790;2023-04-01T17:30:08;9.70;1.00
22426;DHT22;11380;50.822;15.790;2023-04-01T17:35:19;9.70;99.90
22426;DHT22;11380;50.822;15.790;2023-04-01T17:51:58;9.70;1.00
22426;DHT22;11380;50.822;15.790;2023-04-01T18:02:43;9.80;1.00
22426;DHT22;11380;50.822;15.790;2023-04-01T18:13:53;9.60;1.00
22426;DHT22;11380;50.822;15.790;2023-04-01T18:25:05;9.70;1.00
22426;DHT22;11380;50.822;15.790;2023-04-01T18:30:28;9.60;1.00
22426;DHT22;11380;50.822;15.790;2023-04-01T18:52:43;9.50;1.00
22426;DHT22;11380;50.822;15.790;2023-04-01T18:57:54;9.60;1.00
22426;DHT22;11380;50.822;15.790;2023-04-01T19:03:32;9.70;1.00
22426;DHT22;11380;50.822;15.790;2023-04-01T19:08:47;9.70;1.00
22426;DHT22;11380;50.822;15.790;2023-04-01T19:14:18;9.70;1.00
22426;DHT22;11380;50.822;15.790;2023-04-01T19:20:00;9.40;1.00
22426;DHT22;11380;50.822;15.790;2023-04-01T19:36:22;9.10;1.00
22426;DHT22;11380;50.822;15.790;2023-04-01T19:41:46;9.20;1.00
22426;DHT22;11380;50.822;15.790;2023-04-01T19:52:37;9.00;1.00
22426;DHT22;11380;50.822;15.790;2023-04-01T19:57:59;8.70;46.30
22426;DHT22;11380;50.822;15.790;2023-04-01T20:08:51;8.90;65.40
22426;DHT22;11380;50.822;15.790;2023-04-01T20:14:12;8.80;1.00
22426;DHT22;11380;50.822;15.790;2023-04-01T20:20:25;9.10;4.70
22426;DHT22;11380;50.822;15.790;2023-04-01T20:24:47;9.30;1.00
22426;DHT22;11380;50.822;15.790;2023-04-01T20:40:50;9.30;1.00
22426;DHT22;11380;50.822;15.790;2023-04-01T20:51:59;9.20;1.00
22426;DHT22;11380;50.822;15.790;2023-04-01T20:57:17;9.30;1.00
22426;DHT22;11380;50.822;15.790;2023-04-01T21:08:44;9.00;4.30
22426;DHT22;11380;50.822;15.790;2023-04-01T21:25:22;8.80;17.90
22426;DHT22;11380;50.822;15.790;2023-04-01T21:30:43;8.90;1.00
22426;DHT22;11380;50.822;15.790;2023-04-01T21:36:11;9.10;1.00
22426;DHT22;11380;50.822;15.790;2023-04-01T21:58:49;8.80;99.90
22426;DHT22;11380;50.822;15.790;2023-04-01T22:04:22;8.90;99.90
22426;DHT22;11380;50.822;15.790;2023-04-01T22:09:35;8.90;99.90
22426;DHT22;11380;50.822;15.790;2023-04-01T22:30:52;9.00;36.00
22426;DHT22;11380;50.822;15.790;2023-04-01T22:42:25;8.50;99.90
22426;DHT22;11380;50.822;15.790;2023-04-01T22:53:36;8.10;99.90
22426;DHT22;11380;50.822;15.790;2023-04-01T22:59:04;8.10;99.90
22426;DHT22;11380;50.822;15.790;2023-04-01T23:04:15;8.20;99.90
22426;DHT22;11380;50.822;15.790;2023-04-01T23:09:26;8.20;99.90
22426;DHT22;11380;50.822;15.790;2023-04-01T23:14:49;8.10;99.90
22426;DHT22;11380;50.822;15.790;2023-04-01T23:20:10;7.80;99.90
22426;DHT22;11380;50.822;15.790;2023-04-01T23:25:36;7.60;99.90
22426;DHT22;11380;50.822;15.790;2023-04-01T23:30:53;7.50;99.90
22426;DHT22;11380;50.822;15.790;2023-04-01T23:36:10;7.30;99.90
22426;DHT22;11380;50.822;15.790;2023-04-01T23:41:28;7.40;99.90
22426;DHT22;11380;50.822;15.790;2023-04-01T23:46:38;7.40;99.90
22426;DHT22;11380;50.822;15.790;2023-04-01T23:52:04;7.30;99.90
22426;DHT22;11380;50.822;15.790;2023-04-01T23:57:27;7.30;99.90
